Time;durP1;ratioP1;P1;durP2;ratioP2;P2;SDS_P1;SDS_P2;PMS_P1;PMS_P2;Temp;Humidity;BMP_temperature;BMP_pressure;BME280_temperature;BME280_humidity;BME280_pressure;Samples;Min_cycle;Max_cycle;Signal;HPM_P1;HPM_P2
2024/01/17 00:00:17;;;;;;;;;;;;;;;;;;5135183;27;19927;-44
2024/01/17 00:02:43;;;;;;;;;;;;;;;;;;5134910;27;20375;-42
2024/01/17 00:05:10;;;;;;;;;;;;;;;;;;5134904;27;19930;-42
2024/01/17 00:07:37;;;;;;;;;;;;;;;;;;5134806;27;19923;-43
2024/01/17 00:10:03;;;;;;;;;;;;;;;;;;5134494;27;19931;-45
2024/01/17 00:12:30;;;;;;;;;;;;;;;;;;5134803;27;19923;-43
2024/01/17 00:14:56;;;;;;;;;;;;;;;;;;5134767;27;19923;-45
2024/01/17 00:17:22;;;;;;;;;;;;;;;;;;5134289;27;19923;-44
2024/01/17 00:19:49;;;;;;;;;;;;;;;;;;5134558;27;19930;-45
2024/01/17 00:22:16;;;;;;;;;;;;;;;;;;5134775;27;20022;-43
2024/01/17 00:24:42;;;;;;;;;;;;;;;;;;5134705;27;19924;-44
2024/01/17 00:27:08;;;;;;;;;;;;;;;;;;5134585;27;19923;-44
2024/01/17 00:29:35;;;;;;;;;;;;;;;;;;5134682;27;19927;-43
2024/01/17 00:32:01;;;;;;;;;;;;;;;;;;5134553;27;19930;-46
2024/01/17 00:34:27;;;;;;;;;;;;;;;;;;5133873;27;19969;-45
2024/01/17 00:36:53;;;;;;;;;;;;;;;;;;5134234;27;19923;-45
2024/01/17 00:39:22;;;;;;;;;;;;;;;;;;5134066;27;20276;-43
2024/01/17 00:41:48;;;;;;;;;;;;;;;;;;5134050;27;19968;-44
2024/01/17 00:44:18;;;;;;;;;;;;;;;;;;5134263;27;19969;-44
2024/01/17 00:46:44;;;;;;;;;;;;;;;;;;5134020;27;19988;-44
2024/01/17 00:49:10;;;;;;;;;;;;;;;;;;5134185;27;19931;-45
2024/01/17 00:51:36;;;;;;;;;;;;;;;;;;5134146;27;20281;-46
2024/01/17 00:54:03;;;;;;;;;;;;;;;;;;5134314;27;19933;-44
2024/01/17 00:56:32;;;;;;;;;;;;;;;;;;5133985;27;20018;-43
2024/01/17 00:58:58;;;;;;;;;;;;;;;;;;5133777;28;19930;-43
2024/01/17 01:01:24;;;;;;;;;;;;;;;;;;5133996;28;19980;-43
2024/01/17 01:03:50;;;;;;;;;;;;;;;;;;5134015;28;19923;-43
2024/01/17 01:06:16;;;;;;;;;;;;;;;;;;5133906;28;19928;-46
2024/01/17 01:08:43;;;;;;;;;;;;;;;;;;5134225;28;19924;-45
2024/01/17 01:11:09;;;;;;;;;;;;;;;;;;5133758;28;19971;-44
2024/01/17 01:13:35;;;;;;;;;;;;;;;;;;5134066;28;19988;-44
2024/01/17 01:16:03;;;;;;;;;;;;;;;;;;5133693;28;19923;-43
2024/01/17 01:18:29;;;;;;;;;;;;;;;;;;5133954;28;20383;-44
2024/01/17 01:20:57;;;;;;;;;;;;;;;;;;5133971;28;19930;-43
2024/01/17 01:23:25;;;;;;;;;;;;;;;;;;5134060;28;19973;-47
2024/01/17 01:25:51;;;;;;;;;;;;;;;;;;5134096;28;19923;-43
2024/01/17 01:28:17;;;;;;;;;;;;;;;;;;5133933;28;19923;-44
2024/01/17 01:30:44;;;;;;;;;;;;;;;;;;5133715;28;20413;-42
2024/01/17 01:33:10;;;;;;;;;;;;;;;;;;5133831;28;19954;-43
2024/01/17 01:35:36;;;;;;;;;;;;;;;;;;5133582;27;20389;-44
2024/01/17 01:38:02;;;;;;;;;;;;;;;;;;5133687;28;19927;-45
2024/01/17 01:40:28;;;;;;;;;;;;;;;;;;5133486;28;19927;-44
2024/01/17 01:42:58;;;;;;;;;;;;;;;;;;5133699;28;19932;-44
2024/01/17 01:45:24;;;;;;;;;;;;;;;;;;5133464;27;19927;-45
2024/01/17 01:47:50;;;;;;;;;;;;;;;;;;5137188;27;19968;-44
2024/01/17 01:50:16;;;;;;;;;;;;;;;;;;5137600;27;19929;-42
2024/01/17 01:52:43;;;;;;;;;;;;;;;;;;5137634;27;19923;-43
2024/01/17 01:55:09;;;;;;;;;;;;;;;;;;5137568;27;19927;-42
2024/01/17 01:57:35;;;;;;;;;;;;;;;;;;5137404;27;19923;-46
2024/01/17 02:00:04;;;;;;;;;;;;;;;;;;5137297;27;19927;-45
2024/01/17 02:02:30;;;;;;;;;;;;;;;;;;5137154;27;19930;-46
2024/01/17 02:04:57;;;;;;;;;;;;;;;;;;5137303;27;19970;-44
2024/01/17 02:07:23;;;;;;;;;;;;;;;;;;5137245;27;19931;-44
2024/01/17 02:09:49;;;;;;;;;;;;;;;;;;5136680;27;19927;-43
2024/01/17 02:12:15;;;;;;;;;;;;;;;;;;5137052;27;20308;-42
2024/01/17 02:14:41;;;;;;;;;;;;;;;;;;5137016;27;19924;-43
2024/01/17 02:17:08;;;;;;;;;;;;;;;;;;5136674;27;20286;-43
2024/01/17 02:19:34;;;;;;;;;;;;;;;;;;5137029;27;19927;-41
2024/01/17 02:22:00;;;;;;;;;;;;;;;;;;5137195;27;19923;-46
2024/01/17 02:24:28;;;;;;;;;;;;;;;;;;5136534;27;20299;-45
2024/01/17 02:26:54;;;;;;;;;;;;;;;;;;5136892;27;19966;-42
2024/01/17 02:29:21;;;;;;;;;;;;;;;;;;5136532;27;20288;-45
2024/01/17 02:31:47;;;;;;;;;;;;;;;;;;5136641;27;20050;-45
2024/01/17 02:34:13;;;;;;;;;;;;;;;;;;5136380;27;19924;-46
2024/01/17 02:36:40;;;;;;;;;;;;;;;;;;5136607;27;19927;-46
2024/01/17 02:39:06;;;;;;;;;;;;;;;;;;5136531;27;19969;-46
2024/01/17 02:41:32;;;;;;;;;;;;;;;;;;5136243;27;19980;-42
2024/01/17 02:43:58;;;;;;;;;;;;;;;;;;5136584;27;19927;-45
2024/01/17 02:46:24;;;;;;;;;;;;;;;;;;5136131;27;19931;-43
2024/01/17 02:48:50;;;;;;;;;;;;;;;;;;5136720;27;19972;-45
2024/01/17 02:51:17;;;;;;;;;;;;;;;;;;5136407;27;19923;-46
2024/01/17 02:53:43;;;;;;;;;;;;;;;;;;5136546;27;20367;-46
2024/01/17 02:56:09;;;;;;;;;;;;;;;;;;5136508;27;19930;-43
2024/01/17 02:58:35;;;;;;;;;;;;;;;;;;5135682;27;20427;-43
2024/01/17 03:01:01;;;;;;;;;;;;;;;;;;5136173;27;19988;-44
2024/01/17 03:03:28;;;;;;;;;;;;;;;;;;5136113;27;19923;-45
2024/01/17 03:05:54;;;;;;;;;;;;;;;;;;5135877;27;19927;-46
2024/01/17 03:08:20;;;;;;;;;;;;;;;;;;5136059;27;19924;-42
2024/01/17 03:10:46;;;;;;;;;;;;;;;;;;5135668;27;20282;-46
2024/01/17 03:13:14;;;;;;;;;;;;;;;;;;5136024;27;20371;-43
2024/01/17 03:15:40;;;;;;;;;;;;;;;;;;5135638;27;19972;-43
2024/01/17 03:18:13;;;;;;;;;;;;;;;;;;5135888;27;19924;-43
2024/01/17 03:20:39;;;;;;;;;;;;;;;;;;5135906;27;19973;-45
2024/01/17 03:23:05;;;;;;;;;;;;;;;;;;5135891;27;19931;-44
2024/01/17 03:25:32;;;;;;;;;;;;;;;;;;5135689;27;19923;-45
2024/01/17 03:27:58;;;;;;;;;;;;;;;;;;5135587;27;19963;-43
2024/01/17 03:30:24;;;;;;;;;;;;;;;;;;5135728;27;20415;-47
2024/01/17 03:32:50;;;;;;;;;;;;;;;;;;5135689;27;19923;-46
2024/01/17 03:35:17;;;;;;;;;;;;;;;;;;5135378;27;19931;-45
2024/01/17 03:37:43;;;;;;;;;;;;;;;;;;5135406;27;19963;-42
2024/01/17 03:40:09;;;;;;;;;;;;;;;;;;5135229;27;19981;-43
2024/01/17 03:42:35;;;;;;;;;;;;;;;;;;5135399;27;20390;-42
2024/01/17 03:45:01;;;;;;;;;;;;;;;;;;5135437;27;19923;-44
2024/01/17 03:47:27;;;;;;;;;;;;;;;;;;5135153;27;19927;-44
2024/01/17 03:49:54;;;;;;;;;;;;;;;;;;5135333;27;19955;-42
2024/01/17 03:52:20;;;;;;;;;;;;;;;;;;5135182;27;20378;-44
2024/01/17 03:54:46;;;;;;;;;;;;;;;;;;5135035;27;19972;-43
2024/01/17 03:57:12;;;;;;;;;;;;;;;;;;5134974;27;19923;-42
2024/01/17 03:59:39;;;;;;;;;;;;;;;;;;5134908;27;19934;-43
2024/01/17 04:02:05;;;;;;;;;;;;;;;;;;5134699;27;20324;-45
2024/01/17 04:04:31;;;;;;;;;;;;;;;;;;5134980;27;19945;-43
2024/01/17 04:06:57;;;;;;;;;;;;;;;;;;5135007;27;19932;-45
2024/01/17 04:09:24;;;;;;;;;;;;;;;;;;5134187;27;19931;-42
2024/01/17 04:11:50;;;;;;;;;;;;;;;;;;5134734;27;19923;-42
2024/01/17 04:14:17;;;;;;;;;;;;;;;;;;5134756;27;20022;-43
2024/01/17 04:16:43;;;;;;;;;;;;;;;;;;5134541;27;19924;-45
2024/01/17 04:19:09;;;;;;;;;;;;;;;;;;5134783;27;20275;-44
2024/01/17 04:21:36;;;;;;;;;;;;;;;;;;5134653;27;19971;-45
2024/01/17 04:24:02;;;;;;;;;;;;;;;;;;5134476;27;19976;-41
2024/01/17 04:26:28;;;;;;;;;;;;;;;;;;5134548;27;19955;-43
2024/01/17 04:28:54;;;;;;;;;;;;;;;;;;5134525;27;19972;-43
2024/01/17 04:31:21;;;;;;;;;;;;;;;;;;5134437;27;20321;-43
2024/01/17 04:33:47;;;;;;;;;;;;;;;;;;5134204;27;19924;-43
2024/01/17 04:36:16;;;;;;;;;;;;;;;;;;5134330;27;19984;-41
2024/01/17 04:38:42;;;;;;;;;;;;;;;;;;5134154;27;20396;-45
2024/01/17 04:41:09;;;;;;;;;;;;;;;;;;5134145;27;20279;-41
2024/01/17 04:43:35;;;;;;;;;;;;;;;;;;5134433;27;19973;-44
2024/01/17 04:46:01;;;;;;;;;;;;;;;;;;5133970;27;20287;-44
2024/01/17 04:48:27;;;;;;;;;;;;;;;;;;5134498;27;19924;-45
2024/01/17 04:50:58;;;;;;;;;;;;;;;;;;5134281;27;19955;-42
2024/01/17 04:53:24;;;;;;;;;;;;;;;;;;5134239;27;20386;-42
2024/01/17 04:55:51;;;;;;;;;;;;;;;;;;5133895;27;20252;-45
2024/01/17 04:58:18;;;;;;;;;;;;;;;;;;5133946;27;20351;-46
2024/01/17 05:00:45;;;;;;;;;;;;;;;;;;5133911;28;20321;-44
2024/01/17 05:03:11;;;;;;;;;;;;;;;;;;5134179;28;20009;-43
2024/01/17 05:05:37;;;;;;;;;;;;;;;;;;5134094;28;19973;-44
2024/01/17 05:08:04;;;;;;;;;;;;;;;;;;5134137;28;20367;-47
2024/01/17 05:10:30;;;;;;;;;;;;;;;;;;5133884;28;19923;-46
2024/01/17 05:12:56;;;;;;;;;;;;;;;;;;5134150;28;20351;-43
2024/01/17 05:15:24;;;;;;;;;;;;;;;;;;5133943;28;20427;-45
2024/01/17 05:17:50;;;;;;;;;;;;;;;;;;5133954;28;19923;-44
2024/01/17 05:20:17;;;;;;;;;;;;;;;;;;5134834;27;19931;-43
2024/01/17 05:22:43;;;;;;;;;;;;;;;;;;5137974;27;19923;-44
2024/01/17 05:25:11;;;;;;;;;;;;;;;;;;5138070;27;19923;-46
2024/01/17 05:27:37;;;;;;;;;;;;;;;;;;5137875;27;19927;-44
2024/01/17 05:30:03;;;;;;;;;;;;;;;;;;5137996;27;19966;-44
2024/01/17 05:32:30;;;;;;;;;;;;;;;;;;5137883;27;19927;-44
2024/01/17 05:34:56;;;;;;;;;;;;;;;;;;5137951;27;20363;-45
2024/01/17 05:37:23;;;;;;;;;;;;;;;;;;5137951;27;20371;-44
2024/01/17 05:39:50;;;;;;;;;;;;;;;;;;5137202;27;19930;-43
2024/01/17 05:42:16;;;;;;;;;;;;;;;;;;5136972;27;19927;-46
2024/01/17 05:44:44;;;;;;;;;;;;;;;;;;5136936;27;21272;-46
2024/01/17 05:47:10;;;;;;;;;;;;;;;;;;5137296;27;19923;-43
2024/01/17 05:49:36;;;;;;;;;;;;;;;;;;5122908;27;20395;-44
2024/01/17 05:52:02;;;;;;;;;;;;;;;;;;5118462;27;19957;-46
2024/01/17 05:54:28;;;;;;;;;;;;;;;;;;5121243;27;20416;-45
2024/01/17 05:56:54;;;;;;;;;;;;;;;;;;5133218;27;19924;-45
2024/01/17 05:59:21;;;;;;;;;;;;;;;;;;5119751;27;19927;-43
2024/01/17 06:01:47;;;;;;;;;;;;;;;;;;5129599;27;19967;-42
2024/01/17 06:04:13;;;;;;;;;;;;;;;;;;5127130;27;19927;-43
2024/01/17 06:06:40;;;;;;;;;;;;;;;;;;5130550;27;19923;-43
2024/01/17 06:09:07;;;;;;;;;;;;;;;;;;5135369;27;19978;-43
2024/01/17 06:11:33;;;;;;;;;;;;;;;;;;5133043;27;19923;-42
2024/01/17 06:14:00;;;;;;;;;;;;;;;;;;5127335;27;19924;-43
2024/01/17 06:16:26;;;;;;;;;;;;;;;;;;5127045;27;19923;-43
2024/01/17 06:18:54;;;;;;;;;;;;;;;;;;5119254;27;19928;-45
2024/01/17 06:21:21;;;;;;;;;;;;;;;;;;5132661;27;19924;-44
2024/01/17 06:23:47;;;;;;;;;;;;;;;;;;5130339;27;20460;-43
2024/01/17 06:26:13;;;;;;;;;;;;;;;;;;5136000;27;19927;-42
2024/01/17 06:28:39;;;;;;;;;;;;;;;;;;5121716;27;19923;-45
2024/01/17 06:31:06;;;;;;;;;;;;;;;;;;5132684;27;19953;-42
2024/01/17 06:33:32;;;;;;;;;;;;;;;;;;5126728;27;20365;-45
2024/01/17 06:35:58;;;;;;;;;;;;;;;;;;5124440;27;19923;-42
2024/01/17 06:38:25;;;;;;;;;;;;;;;;;;5123606;27;19927;-43
2024/01/17 06:40:51;;;;;;;;;;;;;;;;;;5133013;27;19924;-44
2024/01/17 06:43:17;;;;;;;;;;;;;;;;;;5130651;27;19935;-45
2024/01/17 06:45:43;;;;;;;;;;;;;;;;;;5129728;27;19923;-45
2024/01/17 06:48:09;;;;;;;;;;;;;;;;;;5125050;27;19981;-42
2024/01/17 06:50:36;;;;;;;;;;;;;;;;;;5125088;27;20379;-44
2024/01/17 06:53:02;;;;;;;;;;;;;;;;;;5118595;27;19924;-45
2024/01/17 06:55:28;;;;;;;;;;;;;;;;;;5131112;27;19947;-44
2024/01/17 06:57:54;;;;;;;;;;;;;;;;;;5123156;27;19988;-42
2024/01/17 07:00:20;;;;;;;;;;;;;;;;;;5127423;27;19928;-42
2024/01/17 07:02:47;;;;;;;;;;;;;;;;;;5120644;27;19927;-43
2024/01/17 07:05:14;;;;;;;;;;;;;;;;;;5129202;27;20284;-47
2024/01/17 07:07:40;;;;;;;;;;;;;;;;;;5128287;27;19976;-41
2024/01/17 07:10:08;;;;;;;;;;;;;;;;;;5121334;27;19971;-42
2024/01/17 07:12:34;;;;;;;;;;;;;;;;;;5126967;27;19928;-47
2024/01/17 07:15:00;;;;;;;;;;;;;;;;;;5127411;27;19984;-44
2024/01/17 07:17:26;;;;;;;;;;;;;;;;;;5127102;27;20032;-45
2024/01/17 07:19:53;;;;;;;;;;;;;;;;;;5128008;27;19927;-43
2024/01/17 07:22:19;;;;;;;;;;;;;;;;;;5125279;27;19977;-43
2024/01/17 07:24:46;;;;;;;;;;;;;;;;;;5126975;27;20043;-44
2024/01/17 07:27:12;;;;;;;;;;;;;;;;;;5120968;27;20409;-44
2024/01/17 07:29:38;;;;;;;;;;;;;;;;;;5125495;27;19931;-45
2024/01/17 07:32:04;;;;;;;;;;;;;;;;;;5120504;27;19924;-43
2024/01/17 07:34:30;;;;;;;;;;;;;;;;;;5117195;27;19935;-44
2024/01/17 07:36:57;;;;;;;;;;;;;;;;;;5131671;27;20278;-42
2024/01/17 07:39:23;;;;;;;;;;;;;;;;;;5125209;27;19986;-43
2024/01/17 07:41:49;;;;;;;;;;;;;;;;;;5122018;27;19928;-42
2024/01/17 07:44:15;;;;;;;;;;;;;;;;;;5122461;27;21341;-41
2024/01/17 07:46:42;;;;;;;;;;;;;;;;;;5129054;27;20405;-45
2024/01/17 07:49:08;;;;;;;;;;;;;;;;;;5131044;27;19924;-46
2024/01/17 07:54:43;;;;;;;;;;;;;;;;;;5118359;27;20455;-44
2024/01/17 07:57:12;;;;;;;;;;;;;;;;;;5125637;27;19923;-46
2024/01/17 07:59:38;;;;;;;;;;;;;;;;;;5124406;27;19933;-43
2024/01/17 08:02:04;;;;;;;;;;;;;;;;;;5124167;27;19976;-44
2024/01/17 08:04:31;;;;;;;;;;;;;;;;;;5124846;27;20712;-42
2024/01/17 08:06:57;;;;;;;;;;;;;;;;;;5119645;27;20475;-43
2024/01/17 08:09:26;;;;;;;;;;;;;;;;;;5121839;27;19939;-42
2024/01/17 08:11:52;;;;;;;;;;;;;;;;;;5114822;27;19927;-42
2024/01/17 08:14:18;;;;;;;;;;;;;;;;;;5110937;27;20316;-43
2024/01/17 08:16:44;;;;;;;;;;;;;;;;;;5121343;27;19935;-43
2024/01/17 08:19:11;;;;;;;;;;;;;;;;;;5124370;27;19977;-45
2024/01/17 08:21:37;;;;;;;;;;;;;;;;;;5127343;27;19923;-42
2024/01/17 08:24:03;;;;;;;;;;;;;;;;;;5117325;27;20379;-43
2024/01/17 08:26:30;;;;;;;;;;;;;;;;;;5123466;27;19931;-42
2024/01/17 08:28:56;;;;;;;;;;;;;;;;;;5122019;27;19928;-42
2024/01/17 08:31:22;;;;;;;;;;;;;;;;;;5117427;27;20023;-42
2024/01/17 08:33:49;;;;;;;;;;;;;;;;;;5118791;27;19935;-44
2024/01/17 08:36:17;;;;;;;;;;;;;;;;;;5112514;27;19927;-41
2024/01/17 08:38:43;;;;;;;;;;;;;;;;;;5050271;28;19933;-46
2024/01/17 08:41:09;;;;;;;;;;;;;;;;;;5051251;28;19955;-41
2024/01/17 08:43:35;;;;;;;;;;;;;;;;;;5054710;28;19978;-41
2024/01/17 08:46:02;;;;;;;;;;;;;;;;;;5062278;28;19933;-42
2024/01/17 08:48:28;;;;;;;;;;;;;;;;;;5064160;28;19972;-43
2024/01/17 08:50:54;;;;;;;;;;;;;;;;;;5072176;28;19972;-44
2024/01/17 08:53:21;;;;;;;;;;;;;;;;;;5066624;28;20075;-43
2024/01/17 08:55:47;;;;;;;;;;;;;;;;;;5069242;28;19932;-42
2024/01/17 08:58:13;;;;;;;;;;;;;;;;;;5131753;27;19927;-44
2024/01/17 09:00:39;;;;;;;;;;;;;;;;;;5124374;28;19927;-41
2024/01/17 09:03:05;;;;;;;;;;;;;;;;;;5116659;28;19984;-41
2024/01/17 09:05:32;;;;;;;;;;;;;;;;;;5119420;28;20050;-44
2024/01/17 09:07:58;;;;;;;;;;;;;;;;;;5113368;27;20189;-43
2024/01/17 09:10:25;;;;;;;;;;;;;;;;;;5058403;28;19924;-43
2024/01/17 09:12:51;;;;;;;;;;;;;;;;;;5058971;28;19928;-43
2024/01/17 09:15:20;;;;;;;;;;;;;;;;;;5055895;28;20324;-45
2024/01/17 09:17:46;;;;;;;;;;;;;;;;;;5054993;28;19924;-42
2024/01/17 09:20:14;;;;;;;;;;;;;;;;;;5060446;28;20289;-44
2024/01/17 09:22:41;;;;;;;;;;;;;;;;;;5054907;28;19925;-43
2024/01/17 09:25:08;;;;;;;;;;;;;;;;;;5060309;28;20347;-43
2024/01/17 09:27:34;;;;;;;;;;;;;;;;;;5067516;28;19974;-42
2024/01/17 09:30:00;;;;;;;;;;;;;;;;;;5125709;28;20003;-41
2024/01/17 09:32:26;;;;;;;;;;;;;;;;;;5124599;28;20397;-42
2024/01/17 09:34:53;;;;;;;;;;;;;;;;;;5119014;28;19935;-41
2024/01/17 09:37:19;;;;;;;;;;;;;;;;;;5110834;27;20424;-44
2024/01/17 09:39:45;;;;;;;;;;;;;;;;;;5116517;28;19980;-42
2024/01/17 09:42:11;;;;;;;;;;;;;;;;;;5121608;28;19980;-41
2024/01/17 09:44:38;;;;;;;;;;;;;;;;;;5111692;28;20364;-43
2024/01/17 09:47:04;;;;;;;;;;;;;;;;;;5119466;28;19931;-44
2024/01/17 09:49:30;;;;;;;;;;;;;;;;;;5124493;28;20435;-45
2024/01/17 09:51:56;;;;;;;;;;;;;;;;;;5117625;27;20398;-42
2024/01/17 09:54:24;;;;;;;;;;;;;;;;;;5119817;28;19923;-45
2024/01/17 09:56:50;;;;;;;;;;;;;;;;;;5124116;28;19930;-42
2024/01/17 09:59:17;;;;;;;;;;;;;;;;;;5125074;28;19930;-43
2024/01/17 10:01:43;;;;;;;;;;;;;;;;;;5124661;27;20286;-44
2024/01/17 10:04:11;;;;;;;;;;;;;;;;;;5121665;28;19932;-44
2024/01/17 10:06:37;;;;;;;;;;;;;;;;;;5116952;28;19927;-44
2024/01/17 10:09:03;;;;;;;;;;;;;;;;;;5113166;27;19985;-42
2024/01/17 10:11:29;;;;;;;;;;;;;;;;;;5120100;27;20018;-42
2024/01/17 10:13:56;;;;;;;;;;;;;;;;;;5116977;27;20990;-43
2024/01/17 10:16:23;;;;;;;;;;;;;;;;;;5120865;27;20375;-47
2024/01/17 10:18:49;;;;;;;;;;;;;;;;;;5118361;27;19927;-42
2024/01/17 10:21:16;;;;;;;;;;;;;;;;;;5120279;27;20343;-45
2024/01/17 10:23:43;;;;;;;;;;;;;;;;;;5115806;27;19932;-44
2024/01/17 10:26:09;;;;;;;;;;;;;;;;;;5119156;27;19985;-42
2024/01/17 10:28:35;;;;;;;;;;;;;;;;;;5116232;27;19993;-45
2024/01/17 10:31:02;;;;;;;;;;;;;;;;;;5114823;27;20002;-41
2024/01/17 10:33:28;;;;;;;;;;;;;;;;;;5118789;27;19923;-45
2024/01/17 10:35:54;;;;;;;;;;;;;;;;;;5116627;27;20010;-42
2024/01/17 10:38:20;;;;;;;;;;;;;;;;;;5119038;27;20413;-41
2024/01/17 10:40:47;;;;;;;;;;;;;;;;;;5111628;27;19950;-41
2024/01/17 10:43:13;;;;;;;;;;;;;;;;;;5117261;27;19989;-41
2024/01/17 10:45:39;;;;;;;;;;;;;;;;;;5117537;27;19931;-42
2024/01/17 10:48:06;;;;;;;;;;;;;;;;;;5114971;27;20601;-42
2024/01/17 10:50:32;;;;;;;;;;;;;;;;;;5117945;27;19931;-46
2024/01/17 10:52:58;;;;;;;;;;;;;;;;;;5115847;27;20279;-44
2024/01/17 10:55:25;;;;;;;;;;;;;;;;;;5115771;27;20428;-40
2024/01/17 10:57:51;;;;;;;;;;;;;;;;;;5118966;27;19927;-43
2024/01/17 11:00:26;;;;;;;;;;;;;;;;;;5121996;27;19967;-44
2024/01/17 11:02:52;;;;;;;;;;;;;;;;;;5114764;27;19928;-43
2024/01/17 11:05:18;;;;;;;;;;;;;;;;;;5119346;27;19924;-42
2024/01/17 11:07:44;;;;;;;;;;;;;;;;;;5116275;27;20024;-43
2024/01/17 11:10:10;;;;;;;;;;;;;;;;;;5118968;27;19930;-45
2024/01/17 11:12:37;;;;;;;;;;;;;;;;;;5118001;27;19928;-45
2024/01/17 11:15:04;;;;;;;;;;;;;;;;;;5118063;27;19931;-43
2024/01/17 11:17:35;;;;;;;;;;;;;;;;;;5122183;27;19945;-44
2024/01/17 11:20:01;;;;;;;;;;;;;;;;;;5118274;27;20043;-43
2024/01/17 11:22:28;;;;;;;;;;;;;;;;;;5113349;27;19924;-44
2024/01/17 11:24:54;;;;;;;;;;;;;;;;;;5125944;27;19927;-42
2024/01/17 11:27:22;;;;;;;;;;;;;;;;;;5124427;27;19952;-41
2024/01/17 11:29:48;;;;;;;;;;;;;;;;;;5132071;27;19981;-45
2024/01/17 11:32:14;;;;;;;;;;;;;;;;;;5088618;28;19928;-45
2024/01/17 11:34:40;;;;;;;;;;;;;;;;;;5088548;28;19932;-42
2024/01/17 11:37:07;;;;;;;;;;;;;;;;;;5088555;28;19928;-47
2024/01/17 11:39:33;;;;;;;;;;;;;;;;;;5083720;28;19983;-44
2024/01/17 11:41:59;;;;;;;;;;;;;;;;;;5079908;28;20396;-41
2024/01/17 11:44:25;;;;;;;;;;;;;;;;;;5083384;28;19936;-42
2024/01/17 11:46:53;;;;;;;;;;;;;;;;;;5079633;28;19931;-43
2024/01/17 11:49:19;;;;;;;;;;;;;;;;;;5082260;27;19924;-43
2024/01/17 11:51:45;;;;;;;;;;;;;;;;;;5129889;27;19931;-44
2024/01/17 11:54:13;;;;;;;;;;;;;;;;;;5125943;27;19946;-42
2024/01/17 11:56:39;;;;;;;;;;;;;;;;;;5125581;27;19979;-42
2024/01/17 11:59:05;;;;;;;;;;;;;;;;;;5126002;27;19975;-45
2024/01/17 12:01:31;;;;;;;;;;;;;;;;;;5123492;27;20425;-42
2024/01/17 12:03:58;;;;;;;;;;;;;;;;;;5128922;27;20008;-44
2024/01/17 12:06:24;;;;;;;;;;;;;;;;;;5123644;27;19932;-43
2024/01/17 12:08:52;;;;;;;;;;;;;;;;;;5126511;27;19928;-42
2024/01/17 12:11:18;;;;;;;;;;;;;;;;;;5125444;27;19923;-42
2024/01/17 12:13:44;;;;;;;;;;;;;;;;;;5120840;27;19923;-46
2024/01/17 12:16:11;;;;;;;;;;;;;;;;;;5115870;27;20377;-42
2024/01/17 12:18:37;;;;;;;;;;;;;;;;;;5113796;27;19931;-45
2024/01/17 12:21:04;;;;;;;;;;;;;;;;;;5125788;27;19928;-45
2024/01/17 12:23:30;;;;;;;;;;;;;;;;;;5116718;27;19931;-43
2024/01/17 12:25:57;;;;;;;;;;;;;;;;;;5124706;27;19972;-45
2024/01/17 12:28:23;;;;;;;;;;;;;;;;;;5124582;27;19924;-43
2024/01/17 12:30:49;;;;;;;;;;;;;;;;;;5118842;27;19932;-42
2024/01/17 12:33:15;;;;;;;;;;;;;;;;;;5119665;27;19959;-45
2024/01/17 12:35:41;;;;;;;;;;;;;;;;;;5121463;27;19928;-42
2024/01/17 12:38:08;;;;;;;;;;;;;;;;;;5122349;27;19928;-42
2024/01/17 12:40:34;;;;;;;;;;;;;;;;;;5127810;27;19963;-43
2024/01/17 12:43:00;;;;;;;;;;;;;;;;;;5127327;27;20359;-43
2024/01/17 12:45:26;;;;;;;;;;;;;;;;;;5131533;27;20366;-44
2024/01/17 12:47:53;;;;;;;;;;;;;;;;;;5128923;27;19927;-43
2024/01/17 12:50:19;;;;;;;;;;;;;;;;;;5130733;27;20014;-42
2024/01/17 12:52:46;;;;;;;;;;;;;;;;;;5119226;27;19980;-44
2024/01/17 12:55:12;;;;;;;;;;;;;;;;;;5116721;27;19931;-42
2024/01/17 12:57:38;;;;;;;;;;;;;;;;;;5113646;27;19976;-44
2024/01/17 13:00:10;;;;;;;;;;;;;;;;;;5117000;27;19975;-44
2024/01/17 13:02:37;;;;;;;;;;;;;;;;;;5115612;28;19931;-42
2024/01/17 13:05:03;;;;;;;;;;;;;;;;;;5115603;28;19930;-43
2024/01/17 13:07:29;;;;;;;;;;;;;;;;;;5114845;28;19931;-43
2024/01/17 13:09:56;;;;;;;;;;;;;;;;;;5114219;28;20018;-45
2024/01/17 13:12:22;;;;;;;;;;;;;;;;;;5114606;27;19927;-43
2024/01/17 13:14:50;;;;;;;;;;;;;;;;;;5117653;27;19938;-42
2024/01/17 13:17:18;;;;;;;;;;;;;;;;;;5115300;28;19928;-43
2024/01/17 13:19:44;;;;;;;;;;;;;;;;;;5116254;28;19977;-45
2024/01/17 13:22:12;;;;;;;;;;;;;;;;;;5116463;28;19952;-44
2024/01/17 13:24:38;;;;;;;;;;;;;;;;;;5116652;28;20424;-42
2024/01/17 13:27:05;;;;;;;;;;;;;;;;;;5117149;28;21021;-44
2024/01/17 13:29:32;;;;;;;;;;;;;;;;;;5116980;28;19931;-43
2024/01/17 13:31:58;;;;;;;;;;;;;;;;;;5115791;28;20286;-43
2024/01/17 13:34:24;;;;;;;;;;;;;;;;;;5113564;28;19931;-42
2024/01/17 13:36:51;;;;;;;;;;;;;;;;;;5108060;28;19939;-42
2024/01/17 13:39:17;;;;;;;;;;;;;;;;;;5113384;28;20252;-42
2024/01/17 13:41:43;;;;;;;;;;;;;;;;;;5108535;27;19938;-45
2024/01/17 13:44:11;;;;;;;;;;;;;;;;;;5118383;27;20028;-42
2024/01/17 13:46:37;;;;;;;;;;;;;;;;;;5116842;27;19943;-43
2024/01/17 13:49:07;;;;;;;;;;;;;;;;;;5117875;27;19931;-43
2024/01/17 13:51:36;;;;;;;;;;;;;;;;;;5119765;27;20018;-43
2024/01/17 13:54:14;;;;;;;;;;;;;;;;;;5121225;27;19969;-44
2024/01/17 13:56:40;;;;;;;;;;;;;;;;;;5120235;27;20041;-43
2024/01/17 13:59:07;;;;;;;;;;;;;;;;;;5119979;27;19942;-45
2024/01/17 14:01:33;;;;;;;;;;;;;;;;;;5120945;27;19931;-41
2024/01/17 14:03:59;;;;;;;;;;;;;;;;;;5120599;27;20400;-42
2024/01/17 14:06:25;;;;;;;;;;;;;;;;;;5120477;27;19923;-41
2024/01/17 14:08:51;;;;;;;;;;;;;;;;;;5119594;27;20067;-44
2024/01/17 14:11:18;;;;;;;;;;;;;;;;;;5119720;27;19931;-43
2024/01/17 14:13:44;;;;;;;;;;;;;;;;;;5130388;27;19962;-41
2024/01/17 14:16:10;;;;;;;;;;;;;;;;;;5134966;27;19927;-42
2024/01/17 14:18:36;;;;;;;;;;;;;;;;;;5127449;27;19923;-42
2024/01/17 14:21:02;;;;;;;;;;;;;;;;;;5120207;27;19931;-41
2024/01/17 14:23:29;;;;;;;;;;;;;;;;;;5133582;27;19946;-43
2024/01/17 14:25:55;;;;;;;;;;;;;;;;;;5136328;27;19923;-43
2024/01/17 14:28:23;;;;;;;;;;;;;;;;;;5136368;27;19924;-42
2024/01/17 14:30:49;;;;;;;;;;;;;;;;;;5134750;27;19972;-41
2024/01/17 14:33:19;;;;;;;;;;;;;;;;;;5135953;27;19972;-42
2024/01/17 14:35:45;;;;;;;;;;;;;;;;;;5134920;27;19923;-41
2024/01/17 14:38:12;;;;;;;;;;;;;;;;;;5134486;27;19981;-45
2024/01/17 14:40:38;;;;;;;;;;;;;;;;;;5136036;27;20278;-41
2024/01/17 14:43:05;;;;;;;;;;;;;;;;;;5130812;27;19939;-45
2024/01/17 14:45:32;;;;;;;;;;;;;;;;;;5132706;27;20317;-42
2024/01/17 14:47:58;;;;;;;;;;;;;;;;;;5135095;27;19972;-42
2024/01/17 14:50:24;;;;;;;;;;;;;;;;;;5136402;27;20296;-41
2024/01/17 14:52:50;;;;;;;;;;;;;;;;;;5135838;27;20344;-43
2024/01/17 14:55:16;;;;;;;;;;;;;;;;;;5136232;27;19923;-44
2024/01/17 14:57:44;;;;;;;;;;;;;;;;;;5134766;27;19935;-43
2024/01/17 15:00:17;;;;;;;;;;;;;;;;;;5130857;27;19923;-42
2024/01/17 15:02:45;;;;;;;;;;;;;;;;;;5136089;27;20363;-42
2024/01/17 15:05:11;;;;;;;;;;;;;;;;;;5135762;27;19930;-42
2024/01/17 15:07:38;;;;;;;;;;;;;;;;;;5136232;27;20015;-42
2024/01/17 15:10:05;;;;;;;;;;;;;;;;;;5136145;27;20370;-44
2024/01/17 15:12:31;;;;;;;;;;;;;;;;;;5124507;27;20356;-41
2024/01/17 15:14:57;;;;;;;;;;;;;;;;;;5115544;28;19928;-42
2024/01/17 15:17:26;;;;;;;;;;;;;;;;;;5115229;28;19924;-41
2024/01/17 15:19:52;;;;;;;;;;;;;;;;;;5115435;28;19930;-43
2024/01/17 15:22:18;;;;;;;;;;;;;;;;;;5113606;28;19927;-41
2024/01/17 15:24:44;;;;;;;;;;;;;;;;;;5114138;28;20004;-42
2024/01/17 15:27:10;;;;;;;;;;;;;;;;;;5115423;28;20509;-41
2024/01/17 15:29:42;;;;;;;;;;;;;;;;;;5115389;28;19924;-41
2024/01/17 15:32:09;;;;;;;;;;;;;;;;;;5115366;28;19924;-42
2024/01/17 15:34:35;;;;;;;;;;;;;;;;;;5115165;28;19923;-43
2024/01/17 15:37:01;;;;;;;;;;;;;;;;;;5113624;27;20272;-42
2024/01/17 15:39:31;;;;;;;;;;;;;;;;;;5114627;28;20310;-42
2024/01/17 15:41:58;;;;;;;;;;;;;;;;;;5114761;28;20280;-54
2024/01/17 15:44:24;;;;;;;;;;;;;;;;;;5123918;27;19932;-41
2024/01/17 15:46:50;;;;;;;;;;;;;;;;;;5116534;27;20409;-41
2024/01/17 15:49:16;;;;;;;;;;;;;;;;;;5114892;28;19924;-43
2024/01/17 15:51:43;;;;;;;;;;;;;;;;;;5114950;28;19930;-45
2024/01/17 15:54:10;;;;;;;;;;;;;;;;;;5114792;28;19976;-44
2024/01/17 15:56:36;;;;;;;;;;;;;;;;;;5114806;28;20351;-41
2024/01/17 15:59:04;;;;;;;;;;;;;;;;;;5114763;28;19928;-42
2024/01/17 16:01:30;;;;;;;;;;;;;;;;;;5114783;28;19924;-42
2024/01/17 16:03:57;;;;;;;;;;;;;;;;;;5114547;28;19930;-41
2024/01/17 16:06:23;;;;;;;;;;;;;;;;;;5113752;28;19954;-44
2024/01/17 16:08:50;;;;;;;;;;;;;;;;;;5114500;28;19924;-41
2024/01/17 16:11:16;;;;;;;;;;;;;;;;;;5114367;28;19931;-42
2024/01/17 16:13:42;;;;;;;;;;;;;;;;;;5114392;28;19953;-41
2024/01/17 16:16:08;;;;;;;;;;;;;;;;;;5114335;28;19973;-42
2024/01/17 16:18:34;;;;;;;;;;;;;;;;;;5114345;28;19932;-43
2024/01/17 16:21:00;;;;;;;;;;;;;;;;;;5114277;28;19963;-43
2024/01/17 16:23:27;;;;;;;;;;;;;;;;;;5114261;28;19924;-42
2024/01/17 16:25:53;;;;;;;;;;;;;;;;;;5114069;28;19960;-42
2024/01/17 16:28:20;;;;;;;;;;;;;;;;;;5114356;28;19927;-41
2024/01/17 16:30:48;;;;;;;;;;;;;;;;;;5114221;28;19930;-41
2024/01/17 16:33:14;;;;;;;;;;;;;;;;;;5114535;28;19928;-41
2024/01/17 16:35:42;;;;;;;;;;;;;;;;;;5113963;28;20375;-44
2024/01/17 16:38:08;;;;;;;;;;;;;;;;;;5113827;28;19924;-43
2024/01/17 16:40:34;;;;;;;;;;;;;;;;;;5113979;28;19927;-43
2024/01/17 16:43:01;;;;;;;;;;;;;;;;;;5113654;28;19924;-41